createdAt,value
2019-03-12T00:00:00.463Z,100998.57
2019-03-12T00:00:46.433Z,100998.83
2019-03-12T00:01:24.041Z,101004.23
2019-03-12T00:02:00.134Z,101003.43
2019-03-12T00:02:36.988Z,101000.72
2019-03-12T00:03:13.833Z,101002.08
2019-03-12T00:03:56.546Z,101001.82
2019-03-12T00:04:33.740Z,101009.42
2019-03-12T00:05:09.834Z,101007.81
2019-03-12T00:05:49.515Z,101007.81
2019-03-12T00:06:25.986Z,101015.66
2019-03-12T00:07:02.103Z,101015.15
2019-03-12T00:07:40.368Z,101018.95
2019-03-12T00:08:20.779Z,101024.09
2019-03-12T00:09:08.185Z,101018.17
2019-03-12T00:09:44.230Z,101021.72
2019-03-12T00:10:22.551Z,101013.90
2019-03-12T00:10:59.149Z,101021.46
2019-03-12T00:11:36.617Z,101023.66
2019-03-12T00:12:12.952Z,101023.66
2019-03-12T00:12:49.214Z,101021.20
2019-03-12T00:13:25.323Z,101023.66
2019-03-12T00:14:01.459Z,101023.39
2019-03-12T00:14:39.154Z,101026.39
2019-03-12T00:15:15.324Z,101029.64
2019-03-12T00:16:11.469Z,101027.48
2019-03-12T00:16:47.652Z,101026.97
2019-03-12T00:17:23.708Z,101029.38
2019-03-12T00:17:59.704Z,101026.16
2019-03-12T00:18:37.290Z,101026.16
2019-03-12T00:19:13.330Z,101030.22
2019-03-12T00:19:54.458Z,101031.83
2019-03-12T00:20:30.569Z,101036.71
2019-03-12T00:21:07.988Z,101036.20
2019-03-12T00:21:44.159Z,101028.92
2019-03-12T00:22:25.457Z,101037.58
2019-03-12T00:23:01.661Z,101040.56
2019-03-12T00:23:37.704Z,101040.31
2019-03-12T00:24:15.274Z,101044.36
2019-03-12T00:24:54.649Z,101044.66
2019-03-12T00:25:31.706Z,101049.25
2019-03-12T00:26:10.432Z,101049.25
2019-03-12T00:26:47.748Z,101050.60
2019-03-12T00:27:23.914Z,101050.34
2019-03-12T00:27:59.990Z,101049.80
2019-03-12T00:28:37.235Z,101052.50
2019-03-12T00:29:13.349Z,101052.03
2019-03-12T00:29:49.421Z,101050.14
2019-03-12T00:30:28.601Z,101047.98
2019-03-12T00:31:10.051Z,101046.63
2019-03-12T00:31:46.855Z,101051.23
2019-03-12T00:32:22.935Z,101046.38
2019-03-12T00:33:00.553Z,101051.23
2019-03-12T00:33:40.039Z,101053.39
2019-03-12T00:34:16.570Z,101051.78
2019-03-12T00:34:52.916Z,101055.00
2019-03-12T00:35:34.727Z,101053.64
2019-03-12T00:36:12.122Z,101063.10
2019-03-12T00:36:48.228Z,101061.47
2019-03-12T00:37:24.324Z,101069.05
2019-03-12T00:38:01.726Z,101061.49
2019-03-12T00:38:39.986Z,101057.18
2019-03-12T00:39:16.831Z,101064.20
2019-03-12T00:39:53.585Z,101069.34
2019-03-12T00:40:30.965Z,101068.56
2019-03-12T00:41:12.127Z,101069.34
2019-03-12T00:41:48.221Z,101069.86
2019-03-12T00:42:24.537Z,101068.50
2019-03-12T00:43:04.856Z,101065.52
2019-03-12T00:43:46.963Z,101063.33
2019-03-12T00:44:24.542Z,101067.38
2019-03-12T00:45:00.657Z,101066.84
2019-03-12T00:45:36.744Z,101066.84
2019-03-12T00:46:12.649Z,101072.24
2019-03-12T00:46:48.828Z,101074.41
2019-03-12T00:47:25.185Z,101074.41
2019-03-12T00:48:01.433Z,101083.83
2019-03-12T00:48:38.734Z,101083.83
2019-03-12T00:49:14.833Z,101076.53
2019-03-12T00:49:51.222Z,101081.39
2019-03-12T00:50:27.303Z,101090.30
2019-03-12T00:51:03.262Z,101092.20
2019-03-12T00:51:39.427Z,101089.78
2019-03-12T00:52:16.946Z,101080.06
2019-03-12T00:52:54.472Z,101090.05
2019-03-12T00:53:30.565Z,101092.20
2019-03-12T00:54:06.737Z,101096.48
2019-03-12T00:54:42.764Z,101096.74
2019-03-12T00:55:19.108Z,101098.61
2019-03-12T00:55:55.236Z,101103.44
2019-03-12T00:56:31.223Z,101096.69
2019-03-12T00:57:07.338Z,101103.67
2019-03-12T00:57:47.401Z,101103.67
2019-03-12T00:58:24.810Z,101097.17
2019-03-12T00:59:00.998Z,101104.19
2019-03-12T00:59:37.103Z,101090.67
2019-03-12T01:00:22.496Z,101097.92
2019-03-12T01:01:03.511Z,101107.35
2019-03-12T01:01:39.893Z,101107.32
2019-03-12T01:02:28.019Z,101102.69
2019-03-12T01:03:05.517Z,101101.86
2019-03-12T01:03:42.830Z,101102.38
2019-03-12T01:04:19.279Z,101109.36
2019-03-12T01:04:55.353Z,101110.97
2019-03-12T01:05:31.514Z,101116.62
2019-03-12T01:06:07.534Z,101124.68
2019-03-12T01:06:46.433Z,101124.68
2019-03-12T01:07:22.992Z,101120.88
2019-03-12T01:07:59.087Z,101124.36
2019-03-12T01:08:38.188Z,101124.36
2019-03-12T01:09:14.100Z,101125.94
2019-03-12T01:09:53.772Z,101119.50
2019-03-12T01:10:29.750Z,101123.72
2019-03-12T01:11:06.029Z,101123.72
2019-03-12T01:11:42.165Z,101122.62
2019-03-12T01:12:18.553Z,101114.57
2019-03-12T01:12:56.081Z,101114.57
2019-03-12T01:13:34.987Z,101124.81
2019-03-12T01:14:12.778Z,101124.81
2019-03-12T01:14:48.915Z,101128.09
2019-03-12T01:15:26.611Z,101134.86
2019-03-12T01:16:03.255Z,101133.80
2019-03-12T01:16:39.725Z,101136.20
2019-03-12T01:17:16.344Z,101136.20
2019-03-12T01:17:52.804Z,101133.31
2019-03-12T01:18:28.953Z,101133.31
2019-03-12T01:19:06.709Z,101133.05
2019-03-12T01:19:45.689Z,101129.34
2019-03-12T01:20:23.140Z,101129.34
2019-03-12T01:21:02.785Z,101128.80
2019-03-12T01:21:39.087Z,101135.75
2019-03-12T01:22:15.019Z,101135.50
2019-03-12T01:22:53.550Z,101137.39
2019-03-12T01:23:29.739Z,101129.64
2019-03-12T01:24:08.933Z,101125.32
2019-03-12T01:24:46.376Z,101125.32
2019-03-12T01:25:28.463Z,101134.72
2019-03-12T01:26:06.489Z,101126.90
2019-03-12T01:26:47.646Z,101133.62
2019-03-12T01:27:24.116Z,101136.84
2019-03-12T01:28:00.293Z,101129.06
2019-03-12T01:28:36.730Z,101129.06
2019-03-12T01:29:13.758Z,101134.95
2019-03-12T01:29:50.050Z,101134.95
2019-03-12T01:30:26.100Z,101135.75
2019-03-12T01:31:11.589Z,101138.72
2019-03-12T01:31:48.019Z,101138.98
2019-03-12T01:32:24.541Z,101137.59
2019-03-12T01:33:09.806Z,101134.38
2019-03-12T01:33:51.527Z,101134.38
2019-03-12T01:34:27.952Z,101135.69
2019-03-12T01:35:04.361Z,101145.90
2019-03-12T01:35:42.362Z,101145.06
2019-03-12T01:36:20.088Z,101137.49
2019-03-12T01:37:04.843Z,101137.49
2019-03-12T01:37:42.553Z,101140.16
2019-03-12T01:38:19.557Z,101140.16
2019-03-12T01:38:56.167Z,101146.92
2019-03-12T01:39:33.782Z,101145.54
2019-03-12T01:40:17.459Z,101146.53
2019-03-12T01:40:58.361Z,101144.63
2019-03-12T01:41:35.898Z,101137.84
2019-03-12T01:42:12.805Z,101139.16
2019-03-12T01:42:52.373Z,101139.16
2019-03-12T01:43:27.317Z,101134.28
2019-03-12T01:44:03.607Z,101134.98
2019-03-12T01:44:39.664Z,101131.22
2019-03-12T01:45:19.193Z,101131.22
2019-03-12T01:45:55.776Z,101140.58
2019-03-12T01:46:32.051Z,101141.05
2019-03-12T01:47:09.629Z,101139.66
2019-03-12T01:47:46.036Z,101133.10
2019-03-12T01:48:22.334Z,101139.54
2019-03-12T01:48:58.660Z,101139.54
2019-03-12T01:49:36.253Z,101140.80
2019-03-12T01:50:18.031Z,101140.80
2019-03-12T01:50:54.316Z,101146.72
2019-03-12T01:51:31.333Z,101142.84
2019-03-12T01:52:13.281Z,101138.44
2019-03-12T01:52:51.058Z,101138.98
2019-03-12T01:53:27.436Z,101138.98
2019-03-12T01:54:03.812Z,101143.73
2019-03-12T01:54:40.189Z,101146.47
2019-03-12T01:55:16.709Z,101151.64
2019-03-12T01:55:56.439Z,101143.33
2019-03-12T01:56:32.626Z,101145.13
2019-03-12T01:57:10.285Z,101140.96
2019-03-12T01:57:46.757Z,101142.56
2019-03-12T01:58:24.601Z,101135.19
2019-03-12T01:59:01.556Z,101145.18
2019-03-12T01:59:38.186Z,101138.10
2019-03-12T02:00:22.625Z,101140.92
2019-03-12T02:01:00.341Z,101138.02
2019-03-12T02:01:38.046Z,101131.38
2019-03-12T02:02:24.600Z,101133.44
2019-03-12T02:03:01.907Z,101138.55
2019-03-12T02:03:41.451Z,101135.72
2019-03-12T02:04:19.286Z,101134.23
2019-03-12T02:04:56.856Z,101130.33
2019-03-12T02:05:35.436Z,101140.34
2019-03-12T02:06:20.707Z,101138.55
2019-03-12T02:07:00.717Z,101142.31
2019-03-12T02:07:39.458Z,101142.32
2019-03-12T02:08:17.497Z,101144.55
2019-03-12T02:08:55.649Z,101144.86
2019-03-12T02:09:32.206Z,101145.03
2019-03-12T02:10:14.393Z,101144.92
2019-03-12T02:10:51.866Z,101146.59
2019-03-12T02:11:28.285Z,101152.57
2019-03-12T02:12:04.636Z,101153.11
2019-03-12T02:12:40.853Z,101151.28
2019-03-12T02:13:20.633Z,101153.92
2019-03-12T02:14:01.245Z,101161.05
2019-03-12T02:14:41.459Z,101160.09
2019-03-12T02:15:17.877Z,101165.75
2019-03-12T02:15:54.286Z,101165.44
2019-03-12T02:16:31.271Z,101164.14
2019-03-12T02:17:07.434Z,101167.27
2019-03-12T02:17:45.290Z,101167.83
2019-03-12T02:18:25.916Z,101173.47
2019-03-12T02:19:57.918Z,101173.73
2019-03-12T02:20:34.413Z,101174.78
2019-03-12T02:21:10.608Z,101177.82
2019-03-12T02:21:47.627Z,101179.05
2019-03-12T02:22:30.169Z,101174.87
2019-03-12T02:23:08.747Z,101179.50
2019-03-12T02:23:44.782Z,101180.05
2019-03-12T02:24:22.521Z,101176.00
2019-03-12T02:24:58.541Z,101180.65
2019-03-12T02:25:34.797Z,101189.78
2019-03-12T02:26:11.048Z,101186.26
2019-03-12T02:26:47.938Z,101181.36
2019-03-12T02:27:28.842Z,101189.48
2019-03-12T02:28:05.916Z,101185.39
2019-03-12T02:28:44.670Z,101189.28
2019-03-12T02:29:21.908Z,101187.98
2019-03-12T02:29:58.497Z,101187.55
2019-03-12T02:30:34.796Z,101192.22
2019-03-12T02:31:11.756Z,101192.22
2019-03-12T02:31:47.996Z,101193.13
2019-03-12T02:32:25.761Z,101191.62
2019-03-12T02:33:04.417Z,101189.06
2019-03-12T02:33:43.490Z,101193.30
2019-03-12T02:34:21.009Z,101194.34
2019-03-12T02:34:58.474Z,101193.94
2019-03-12T02:35:35.005Z,101191.98
2019-03-12T02:36:12.605Z,101195.94
2019-03-12T02:36:48.762Z,101198.34
2019-03-12T02:37:24.798Z,101190.16
2019-03-12T02:38:01.078Z,101200.50
2019-03-12T02:38:49.043Z,101193.80
2019-03-12T02:39:25.339Z,101198.69
2019-03-12T02:40:01.365Z,101204.43
2019-03-12T02:40:44.435Z,101197.94
2019-03-12T02:41:20.953Z,101203.86
2019-03-12T02:41:58.779Z,101202.44
2019-03-12T02:42:38.226Z,101204.43
2019-03-12T02:43:15.267Z,101204.71
2019-03-12T02:44:01.456Z,101208.84
2019-03-12T02:44:40.505Z,101200.83
2019-03-12T02:45:16.896Z,101199.37
2019-03-12T02:45:53.191Z,101206.05
2019-03-12T02:46:29.785Z,101207.71
2019-03-12T02:47:10.673Z,101206.34
2019-03-12T02:47:46.849Z,101202.82
2019-03-12T02:48:25.735Z,101206.61
2019-03-12T02:49:03.628Z,101209.09
2019-03-12T02:49:40.105Z,101201.87
2019-03-12T02:50:21.136Z,101202.78
2019-03-12T02:50:57.544Z,101197.05
2019-03-12T02:51:33.505Z,101201.56
2019-03-12T02:52:09.938Z,101201.94
2019-03-12T02:52:46.268Z,101196.25
2019-03-12T02:53:22.552Z,101197.18
2019-03-12T02:54:01.005Z,101195.16
2019-03-12T02:54:38.553Z,101195.06
2019-03-12T02:55:15.226Z,101198.81
2019-03-12T02:55:51.908Z,101198.20
2019-03-12T02:56:27.972Z,101196.82
2019-03-12T02:57:04.197Z,101196.77
2019-03-12T02:57:42.077Z,101188.14
2019-03-12T02:58:22.749Z,101189.39
2019-03-12T02:58:59.247Z,101199.48
2019-03-12T02:59:35.305Z,101197.69
2019-03-12T03:00:26.718Z,101196.09
2019-03-12T03:01:03.328Z,101191.39
2019-03-12T03:01:40.893Z,101190.16
2019-03-12T03:02:18.151Z,101189.36
2019-03-12T03:02:54.493Z,101189.66
2019-03-12T03:03:33.081Z,101185.63
2019-03-12T03:04:09.275Z,101187.48
2019-03-12T03:04:54.247Z,101190.72
2019-03-12T03:05:29.488Z,101186.75
2019-03-12T03:06:27.264Z,101183.91
2019-03-12T03:07:10.474Z,101181.52
2019-03-12T03:08:08.277Z,101183.08
2019-03-12T03:08:46.968Z,101185.28
2019-03-12T03:09:23.245Z,101184.12
2019-03-12T03:09:59.450Z,101177.52
2019-03-12T03:10:40.115Z,101185.05
2019-03-12T03:11:16.208Z,101184.48
2019-03-12T03:11:52.943Z,101185.98
2019-03-12T03:12:29.793Z,101182.98
2019-03-12T03:13:10.692Z,101186.85
2019-03-12T03:13:46.909Z,101182.42
2019-03-12T03:14:37.654Z,101184.98
2019-03-12T03:15:33.220Z,101187.42
2019-03-12T03:16:09.618Z,101188.69
2019-03-12T03:16:45.820Z,101186.98
2019-03-12T03:17:31.190Z,101186.36
2019-03-12T03:18:12.274Z,101184.55
2019-03-12T03:18:48.581Z,101187.52
2019-03-12T03:19:26.508Z,101184.09
2019-03-12T03:20:02.578Z,101174.79
2019-03-12T03:20:39.641Z,101177.42
2019-03-12T03:21:16.847Z,101172.72
2019-03-12T03:21:53.144Z,101176.25
2019-03-12T03:22:29.135Z,101178.78
2019-03-12T03:23:06.117Z,101177.98
2019-03-12T03:23:42.701Z,101171.84
2019-03-12T03:24:18.769Z,101172.19
2019-03-12T03:25:01.323Z,101174.79
2019-03-12T03:25:37.747Z,101177.52
2019-03-12T03:26:15.148Z,101173.45
2019-03-12T03:26:51.609Z,101172.31
2019-03-12T03:27:29.496Z,101163.78
2019-03-12T03:28:07.845Z,101174.38
2019-03-12T03:28:46.705Z,101170.72
2019-03-12T03:29:24.418Z,101170.28
2019-03-12T03:30:01.251Z,101161.52
2019-03-12T03:30:38.363Z,101165.54
2019-03-12T03:31:16.019Z,101164.25
2019-03-12T03:31:52.314Z,101164.17
2019-03-12T03:32:31.349Z,101170.00
2019-03-12T03:33:07.926Z,101168.53
2019-03-12T03:33:45.984Z,101165.33
2019-03-12T03:34:27.886Z,101162.59
2019-03-12T03:35:00.794Z,101160.09
2019-03-12T03:35:37.757Z,101160.66
2019-03-12T03:36:13.971Z,101159.06
2019-03-12T03:36:50.121Z,101157.12
2019-03-12T03:37:28.004Z,101159.42
2019-03-12T03:38:08.669Z,101159.48
2019-03-12T03:38:47.696Z,101160.73
2019-03-12T03:39:29.213Z,101158.16
2019-03-12T03:40:07.214Z,101153.33
2019-03-12T03:40:44.019Z,101154.63
2019-03-12T03:41:20.117Z,101155.81
2019-03-12T03:41:57.415Z,101147.74
2019-03-12T03:42:34.152Z,101151.06
2019-03-12T03:43:12.450Z,101153.61
2019-03-12T03:43:49.083Z,101146.33
2019-03-12T03:44:28.886Z,101142.46
2019-03-12T03:45:05.642Z,101148.50
2019-03-12T03:45:44.214Z,101144.63
2019-03-12T03:46:20.763Z,101143.27
2019-03-12T03:46:57.828Z,101145.41
2019-03-12T03:47:34.833Z,101150.88
2019-03-12T03:48:11.761Z,101141.33
2019-03-12T03:48:47.934Z,101146.23
2019-03-12T03:49:25.374Z,101139.75
2019-03-12T03:50:06.081Z,101141.34
2019-03-12T03:50:43.547Z,101145.87
2019-03-12T03:51:20.427Z,101139.48
2019-03-12T03:51:59.720Z,101142.09
2019-03-12T03:52:36.321Z,101132.92
2019-03-12T03:53:12.422Z,101134.05
2019-03-12T03:53:48.952Z,101131.55
2019-03-12T03:54:25.672Z,101133.48
2019-03-12T03:55:01.954Z,101130.80
2019-03-12T03:55:38.388Z,101124.20
2019-03-12T03:56:15.190Z,101125.59
2019-03-12T03:56:52.833Z,101133.82
2019-03-12T03:57:30.516Z,101132.02
2019-03-12T03:58:07.303Z,101122.99
2019-03-12T03:58:48.901Z,101121.81
2019-03-12T03:59:25.252Z,101123.42
2019-03-12T04:00:02.782Z,101123.73
2019-03-12T04:00:42.022Z,101124.13
2019-03-12T04:01:27.246Z,101122.42
2019-03-12T04:02:03.373Z,101115.72
2019-03-12T04:02:40.165Z,101114.80
2019-03-12T04:03:17.168Z,101111.22
2019-03-12T04:03:53.955Z,101111.03
2019-03-12T04:04:32.812Z,101114.90
2019-03-12T04:05:13.651Z,101118.44
2019-03-12T04:05:49.995Z,101111.06
2019-03-12T04:06:27.007Z,101110.64
2019-03-12T04:07:03.168Z,101110.08
2019-03-12T04:07:41.978Z,101106.95
2019-03-12T04:08:18.407Z,101103.00
2019-03-12T04:08:55.327Z,101104.30
2019-03-12T04:09:31.845Z,101106.48
2019-03-12T04:10:08.995Z,101104.62
2019-03-12T04:10:46.486Z,101102.13
2019-03-12T04:11:25.927Z,101103.90
2019-03-12T04:12:08.309Z,101105.98
2019-03-12T04:12:44.707Z,101110.23
2019-03-12T04:13:20.841Z,101100.63
2019-03-12T04:13:56.964Z,101100.31
2019-03-12T04:14:33.123Z,101094.91
2019-03-12T04:15:10.073Z,101100.38
2019-03-12T04:15:46.360Z,101096.70
2019-03-12T04:16:23.072Z,101097.91
2019-03-12T04:17:00.499Z,101091.40
2019-03-12T04:17:37.065Z,101094.29
2019-03-12T04:18:13.288Z,101089.00
2019-03-12T04:18:52.369Z,101094.56
2019-03-12T04:19:30.558Z,101088.47
2019-03-12T04:20:11.115Z,101087.19
2019-03-12T04:20:47.499Z,101081.50
2019-03-12T04:21:23.642Z,101083.10
2019-03-12T04:22:01.208Z,101080.38
2019-03-12T04:22:39.040Z,101082.62
2019-03-12T04:23:19.177Z,101077.87
2019-03-12T04:23:56.284Z,101075.78
2019-03-12T04:24:52.419Z,101074.02
2019-03-12T04:25:30.323Z,101071.97
2019-03-12T04:26:06.631Z,101075.30
2019-03-12T04:26:45.659Z,101066.88
2019-03-12T04:27:25.554Z,101070.09
2019-03-12T04:28:02.209Z,101065.27
2019-03-12T04:28:42.035Z,101072.64
2019-03-12T04:29:18.506Z,101068.00
2019-03-12T04:29:56.153Z,101069.81
2019-03-12T04:30:33.506Z,101064.77
2019-03-12T04:31:09.952Z,101059.94
2019-03-12T04:31:46.091Z,101059.90
2019-03-12T04:32:23.338Z,101059.24
2019-03-12T04:33:07.062Z,101051.38
2019-03-12T04:34:38.393Z,101053.28
2019-03-12T04:35:18.318Z,101053.34
2019-03-12T04:35:56.104Z,101042.06
2019-03-12T04:36:32.437Z,101042.58
2019-03-12T04:37:11.937Z,101038.52
2019-03-12T04:37:48.076Z,101038.82
2019-03-12T04:38:24.231Z,101029.97
2019-03-12T04:39:04.033Z,101031.73
2019-03-12T04:39:44.212Z,101034.73
2019-03-12T04:40:23.115Z,101031.48
2019-03-12T04:40:59.643Z,101035.61
2019-03-12T04:41:38.547Z,101034.95
2019-03-12T04:42:14.670Z,101027.69
2019-03-12T04:42:53.935Z,101035.03
2019-03-12T04:43:30.268Z,101031.03
2019-03-12T04:44:06.349Z,101034.69
2019-03-12T04:44:43.633Z,101031.16
2019-03-12T04:45:22.382Z,101031.39
2019-03-12T04:46:01.783Z,101027.76
2019-03-12T04:46:38.322Z,101025.48
2019-03-12T04:47:14.590Z,101023.15
2019-03-12T04:47:54.768Z,101023.27
2019-03-12T04:48:34.194Z,101018.73
2019-03-12T04:49:13.647Z,101018.50
2019-03-12T04:49:50.326Z,101012.28
2019-03-12T04:50:26.760Z,101014.00
2019-03-12T04:51:02.965Z,101008.89
2019-03-12T04:51:40.496Z,101010.27
2019-03-12T04:52:16.759Z,101009.28
2019-03-12T04:53:09.967Z,101008.16
2019-03-12T04:53:47.400Z,101002.47
2019-03-12T04:54:23.680Z,101004.55
2019-03-12T04:54:59.875Z,101005.58
2019-03-12T04:55:36.282Z,101006.84
2019-03-12T04:56:16.078Z,101003.42
2019-03-12T04:56:52.486Z,100999.58
2019-03-12T04:57:46.744Z,100992.97
2019-03-12T04:58:23.432Z,100993.16
2019-03-12T04:58:59.997Z,100993.28
2019-03-12T04:59:37.028Z,100994.72
2019-03-12T05:00:19.266Z,100993.92
2019-03-12T05:00:56.638Z,100994.27
2019-03-12T05:01:43.089Z,100994.79
2019-03-12T05:02:19.195Z,100995.36
2019-03-12T05:02:56.729Z,100989.89
2019-03-12T05:03:33.402Z,100990.34
2019-03-12T05:04:09.574Z,100989.66
2019-03-12T05:04:45.717Z,100984.64
2019-03-12T05:05:26.181Z,100983.51
2019-03-12T05:06:02.760Z,100981.80
2019-03-12T05:06:43.449Z,100981.23
2019-03-12T05:07:19.623Z,100986.02
2019-03-12T05:07:55.873Z,100982.14
2019-03-12T05:08:32.789Z,100979.19
2019-03-12T05:09:10.234Z,100983.05
2019-03-12T05:09:46.614Z,100981.12
2019-03-12T05:10:24.264Z,100978.72
2019-03-12T05:11:01.366Z,100979.30
2019-03-12T05:11:37.600Z,100976.45
2019-03-12T05:12:14.198Z,100976.67
2019-03-12T05:13:03.464Z,100979.87
2019-03-12T05:13:39.666Z,100976.95
2019-03-12T05:14:27.445Z,100979.56
2019-03-12T05:15:03.866Z,100974.45
2019-03-12T05:15:42.739Z,100972.17
2019-03-12T05:16:21.310Z,100972.43
2019-03-12T05:17:14.581Z,100972.46
2019-03-12T05:17:51.091Z,100971.55
2019-03-12T05:18:27.502Z,100969.16
2019-03-12T05:19:04.130Z,100962.21
2019-03-12T05:20:04.973Z,100964.72
2019-03-12T05:20:45.213Z,100965.74
2019-03-12T05:21:21.389Z,100964.45
2019-03-12T05:21:58.888Z,100958.08
2019-03-12T05:22:35.155Z,100958.77
2019-03-12T05:23:11.302Z,100959.94
2019-03-12T05:23:47.747Z,100954.92
2019-03-12T05:24:28.523Z,100960.39
2019-03-12T05:25:05.786Z,100957.42
2019-03-12T05:25:43.383Z,100948.42
2019-03-12T05:26:19.610Z,100951.27
2019-03-12T05:26:59.026Z,100951.27
2019-03-12T05:27:35.322Z,100947.39
2019-03-12T05:28:12.337Z,100950.92
2019-03-12T05:28:48.482Z,100951.95
2019-03-12T05:29:26.078Z,100947.84
2019-03-12T05:30:02.430Z,100952.41
2019-03-12T05:30:44.072Z,100945.45
2019-03-12T05:31:25.034Z,100947.84
2019-03-12T05:32:03.077Z,100946.48
2019-03-12T05:32:40.033Z,100945.25
2019-03-12T05:33:16.274Z,100942.83
2019-03-12T05:33:52.936Z,100936.34
2019-03-12T05:34:29.103Z,100936.82
2019-03-12T05:35:05.329Z,100941.03
2019-03-12T05:35:42.914Z,100937.61
2019-03-12T05:36:23.856Z,100938.06
2019-03-12T05:37:00.243Z,100935.34
2019-03-12T05:37:36.744Z,100928.49
2019-03-12T05:38:12.790Z,100927.83
2019-03-12T05:38:50.393Z,100923.73
2019-03-12T05:39:26.848Z,100923.24
2019-03-12T05:40:05.807Z,100917.20
2019-03-12T05:40:46.525Z,100910.83
2019-03-12T05:41:23.787Z,100910.95
2019-03-12T05:42:00.326Z,100917.56
2019-03-12T05:42:39.310Z,100909.58
2019-03-12T05:43:15.651Z,100905.45
2019-03-12T05:43:59.456Z,100908.77
2019-03-12T05:44:35.800Z,100912.98
2019-03-12T05:45:13.216Z,100901.59
2019-03-12T05:45:50.711Z,100897.70
2019-03-12T05:46:29.393Z,100897.82
2019-03-12T05:47:08.122Z,100901.35
2019-03-12T05:47:43.700Z,100896.23
2019-03-12T05:48:21.289Z,100894.73
2019-03-12T05:48:58.435Z,100891.12
2019-03-12T05:49:34.854Z,100892.23
2019-03-12T05:50:12.814Z,100888.39
2019-03-12T05:50:48.955Z,100889.98
2019-03-12T05:51:26.329Z,100888.61
2019-03-12T05:52:02.781Z,100885.53
2019-03-12T05:52:39.039Z,100883.81
2019-03-12T05:53:16.030Z,100889.97
2019-03-12T05:53:57.433Z,100882.66
2019-03-12T05:54:33.616Z,100882.66
2019-03-12T05:55:10.070Z,100880.95
2019-03-12T05:55:52.563Z,100882.10
2019-03-12T05:56:29.144Z,100886.08
2019-03-12T05:57:06.678Z,100881.54
2019-03-12T05:57:45.857Z,100878.34
2019-03-12T05:58:23.506Z,100876.64
2019-03-12T05:58:59.618Z,100876.17
2019-03-12T05:59:38.563Z,100876.07
2019-03-12T06:00:27.307Z,100871.39
2019-03-12T06:01:07.043Z,100870.59
2019-03-12T06:01:46.676Z,100864.42
2019-03-12T06:02:23.235Z,100874.48
2019-03-12T06:03:00.634Z,100861.94
2019-03-12T06:03:37.996Z,100858.51
2019-03-12T06:04:15.768Z,100865.58
2019-03-12T06:04:51.828Z,100861.47
2019-03-12T06:05:29.561Z,100860.45
2019-03-12T06:06:05.844Z,100858.28
2019-03-12T06:06:45.582Z,100859.66
2019-03-12T06:07:21.860Z,100858.06
2019-03-12T06:07:59.442Z,100862.39
2019-03-12T06:08:35.511Z,100855.64
2019-03-12T06:09:11.776Z,100851.44
2019-03-12T06:09:50.314Z,100857.58
2019-03-12T06:10:29.547Z,100852.36
2019-03-12T06:11:06.821Z,100847.12
2019-03-12T06:11:43.315Z,100848.92
2019-03-12T06:12:19.815Z,100848.83
2019-03-12T06:12:56.016Z,100844.36
2019-03-12T06:13:32.151Z,100841.08
2019-03-12T06:14:08.670Z,100841.17
2019-03-12T06:14:47.736Z,100838.89
2019-03-12T06:15:27.121Z,100834.47
2019-03-12T06:16:06.393Z,100832.30
2019-03-12T06:16:45.055Z,100832.99
2019-03-12T06:17:21.485Z,100830.94
2019-03-12T06:17:57.831Z,100832.30
2019-03-12T06:18:34.242Z,100822.03
2019-03-12T06:19:10.540Z,100823.41
2019-03-12T06:19:46.584Z,100824.08
2019-03-12T06:20:23.640Z,100823.37
2019-03-12T06:20:59.897Z,100822.49
2019-03-12T06:21:38.889Z,100822.14
2019-03-12T06:22:15.112Z,100815.85
2019-03-12T06:22:59.833Z,100810.83
2019-03-12T06:23:41.193Z,100810.70
2019-03-12T06:24:17.421Z,100807.96
2019-03-12T06:24:55.194Z,100811.02
2019-03-12T06:25:36.934Z,100809.30
2019-03-12T06:26:15.928Z,100800.39
2019-03-12T06:26:52.230Z,100802.33
2019-03-12T06:27:28.775Z,100808.47
2019-03-12T06:28:05.966Z,100807.77
2019-03-12T06:28:53.376Z,100811.87
2019-03-12T06:29:37.025Z,100802.50
2019-03-12T06:30:14.746Z,100805.24
2019-03-12T06:31:09.725Z,100803.52
2019-03-12T06:32:03.992Z,100798.27
2019-03-12T06:33:05.439Z,100795.53
2019-03-12T06:33:58.362Z,100793.49
2019-03-12T06:35:05.806Z,100794.25
2019-03-12T06:35:48.291Z,100789.16
2019-03-12T06:36:52.989Z,100791.42
2019-03-12T06:37:52.823Z,100790.27
2019-03-12T06:38:57.507Z,100782.67
2019-03-12T06:39:45.739Z,100783.95
2019-03-12T06:40:35.377Z,100788.67
2019-03-12T06:41:20.782Z,100780.25
2019-03-12T06:42:02.721Z,100777.87
2019-03-12T06:42:56.227Z,100782.20
2019-03-12T06:43:42.152Z,100774.91
2019-03-12T06:44:32.494Z,100773.89
2019-03-12T06:45:33.129Z,100770.58
2019-03-12T06:46:28.144Z,100771.69
2019-03-12T06:47:30.805Z,100765.53
2019-03-12T06:48:25.800Z,100768.59
2019-03-12T06:49:21.238Z,100766.28
2019-03-12T06:50:09.154Z,100760.02
2019-03-12T06:51:12.878Z,100766.59
2019-03-12T06:52:18.122Z,100760.19
2019-03-12T06:53:18.893Z,100755.64
2019-03-12T06:54:18.014Z,100755.42
2019-03-12T06:55:19.782Z,100756.35
2019-03-12T06:56:19.121Z,100754.54
2019-03-12T06:57:25.851Z,100747.61
2019-03-12T06:58:29.170Z,100748.05
2019-03-12T06:59:31.441Z,100739.13
2019-03-12T07:00:37.814Z,100740.58
2019-03-12T07:01:42.568Z,100745.84
2019-03-12T07:02:38.939Z,100739.70
2019-03-12T07:03:39.987Z,100733.43
2019-03-12T07:04:28.220Z,100733.70
2019-03-12T07:05:21.793Z,100725.62
2019-03-12T07:06:18.894Z,100729.72
2019-03-12T07:07:17.599Z,100724.69
2019-03-12T07:08:26.102Z,100720.09
2019-03-12T07:09:13.330Z,100718.72
2019-03-12T07:10:26.013Z,100718.02
2019-03-12T07:11:37.309Z,100721.63
2019-03-12T07:12:37.075Z,100717.75
2019-03-12T07:13:23.128Z,100715.94
2019-03-12T07:14:13.117Z,100717.71
2019-03-12T07:15:04.078Z,100711.87
2019-03-12T07:16:01.264Z,100707.33
2019-03-12T07:17:00.491Z,100715.77
2019-03-12T07:17:45.992Z,100701.77
2019-03-12T07:18:54.566Z,100703.24
2019-03-12T07:19:57.276Z,100700.06
2019-03-12T07:20:53.558Z,100693.66
2019-03-12T07:21:53.558Z,100697.33
2019-03-12T07:22:41.876Z,100690.05
2019-03-12T07:23:26.834Z,100686.86
2019-03-12T07:24:33.398Z,100685.52
2019-03-12T07:25:29.990Z,100685.30
2019-03-12T07:26:25.144Z,100685.30
2019-03-12T07:27:36.561Z,100686.17
2019-03-12T07:28:29.869Z,100682.29
2019-03-12T07:29:24.234Z,100682.77
2019-03-12T07:30:15.179Z,100676.80
2019-03-12T07:31:11.231Z,100675.42
2019-03-12T07:32:11.268Z,100675.20
2019-03-12T07:33:07.599Z,100674.87
2019-03-12T07:34:10.148Z,100665.34
2019-03-12T07:35:22.910Z,100663.17
2019-03-12T07:36:11.349Z,100663.31
2019-03-12T07:36:56.626Z,100660.70
2019-03-12T07:37:51.499Z,100658.41
2019-03-12T07:40:03.918Z,100658.63
2019-03-12T07:41:29.977Z,100654.03